Time;durP1;ratioP1;P1;durP2;ratioP2;P2;SDS_P1;SDS_P2;PMS_P1;PMS_P2;Temp;Humidity;BMP_temperature;BMP_pressure;BME280_temperature;BME280_humidity;BME280_pressure;Samples;Min_cycle;Max_cycle;Signal;HPM_P1;HPM_P2
2022/02/24 00:02:18;;;;;;;1.63;1.53;;;0.20;99.90;-0.30;101095.00;;;;4935035;28;93796;-65
2022/02/24 00:04:45;;;;;;;3.33;1.90;;;0.10;99.90;-0.40;101104.00;;;;4898282;28;94890;-65
2022/02/24 00:07:11;;;;;;;2.33;1.50;;;0.00;99.90;-0.50;101103.00;;;;4915635;28;122355;-65
2022/02/24 00:09:36;;;;;;;3.53;1.77;;;0.00;99.90;-0.50;101113.00;;;;4920984;28;92936;-65
2022/02/24 00:12:03;;;;;;;3.43;1.70;;;-0.10;99.90;-0.50;101110.00;;;;4936273;28;108036;-66
2022/02/24 00:14:29;;;;;;;10.20;2.80;;;-0.10;99.90;-0.60;101113.00;;;;4951597;28;92949;-65
2022/02/24 00:16:54;;;;;;;2.67;1.77;;;-0.20;99.90;-0.70;101112.00;;;;4935176;28;120961;-65
2022/02/24 00:19:20;;;;;;;4.57;1.90;;;0.50;99.90;-0.70;101105.00;;;;4935875;28;105958;-65
2022/02/24 00:21:46;;;;;;;2.47;1.53;;;-0.20;99.90;-0.70;101102.00;;;;4936693;28;92685;-65
2022/02/24 00:24:11;;;;;;;5.30;2.10;;;-0.30;99.90;-0.70;101111.00;;;;4948825;28;123160;-65
2022/02/24 00:26:38;;;;;;;4.10;1.53;;;0.20;99.90;-0.80;101099.00;;;;4934653;28;122049;-65
2022/02/24 00:29:04;;;;;;;7.80;1.40;;;-0.40;99.90;-0.90;101092.00;;;;4935558;28;104824;-65
2022/02/24 00:31:31;;;;;;;3.20;1.93;;;-0.50;99.90;-0.90;101103.00;;;;4926791;28;97705;-66
2022/02/24 00:33:58;;;;;;;2.43;1.70;;;-0.50;99.90;-0.90;101090.00;;;;4916104;28;92957;-64
2022/02/24 00:36:24;;;;;;;4.10;2.40;;;-0.60;99.90;-1.00;101095.00;;;;4915455;28;93134;-65
2022/02/24 00:38:50;;;;;;;3.97;2.70;;;-0.60;99.90;-1.00;101092.00;;;;4914982;28;111182;-66
2022/02/24 00:41:15;;;;;;;3.97;1.93;;;-0.70;99.90;-1.00;101101.00;;;;4915443;28;102294;-65
2022/02/24 00:43:41;;;;;;;3.13;2.17;;;-0.70;99.90;-1.10;101094.00;;;;4913109;28;119762;-65
2022/02/24 00:46:07;;;;;;;5.50;2.10;;;-0.70;99.90;-1.10;101095.00;;;;4914203;28;122284;-66
2022/02/24 00:48:32;;;;;;;4.40;2.03;;;-0.50;99.90;-1.10;101086.00;;;;4923789;28;110533;-65
2022/02/24 00:50:58;;;;;;;2.97;2.37;;;-0.60;99.90;-1.10;101076.00;;;;4935568;28;93831;-65
2022/02/24 00:53:24;;;;;;;8.20;2.50;;;-0.70;99.90;-1.00;101083.00;;;;4950868;28;114116;-65
2022/02/24 00:55:50;;;;;;;5.13;1.87;;;-1.40;99.90;-1.00;101083.00;;;;4933336;28;92777;-66
2022/02/24 00:58:16;;;;;;;3.07;1.53;;;-0.70;99.90;-0.90;101072.00;;;;4935918;28;93177;-65
2022/02/24 01:00:42;;;;;;;3.10;1.77;;;-0.50;99.90;-0.80;101073.00;;;;4917501;28;92897;-65
2022/02/24 01:03:08;;;;;;;3.00;1.60;;;-0.50;99.90;-0.80;101067.00;;;;4915952;28;93004;-65
2022/02/24 01:05:34;;;;;;;5.40;2.37;;;-0.40;99.90;-0.80;101069.00;;;;4915522;28;94185;-65
2022/02/24 01:08:00;;;;;;;4.20;1.60;;;-0.40;99.90;-0.70;101064.00;;;;4919581;28;92363;-65
2022/02/24 01:10:25;;;;;;;1.97;1.13;;;-0.40;99.90;-0.70;101055.00;;;;4936056;28;93182;-65
2022/02/24 01:12:51;;;;;;;2.63;1.97;;;-0.40;99.90;-0.60;101051.00;;;;4932839;28;93088;-65
2022/02/24 01:15:17;;;;;;;1.60;1.50;;;-0.30;99.90;-0.60;101051.00;;;;4933520;28;97739;-65
2022/02/24 01:17:43;;;;;;;4.23;1.20;;;-0.40;99.90;-0.60;101056.00;;;;4932446;28;110038;-65
2022/02/24 01:20:10;;;;;;;1.43;1.33;;;-0.20;99.90;-0.60;101049.00;;;;4934777;28;93182;-65
2022/02/24 01:22:36;;;;;;;1.77;1.60;;;-0.20;99.90;-0.60;101046.00;;;;4934962;28;93333;-67
2022/02/24 01:25:04;;;;;;;4.33;1.57;;;-0.30;99.90;-0.60;101042.00;;;;4932722;28;92711;-66
2022/02/24 01:27:29;;;;;;;4.50;1.73;;;0.90;99.90;-0.50;101033.00;;;;4926971;28;103966;-66
2022/02/24 01:29:56;;;;;;;2.17;1.60;;;-0.20;99.90;-0.60;101022.00;;;;4914901;28;107554;-65
2022/02/24 01:32:21;;;;;;;10.80;1.47;;;-0.20;99.90;-0.60;101024.00;;;;4915422;28;93439;-65
2022/02/24 01:34:47;;;;;;;1.70;1.50;;;-0.50;99.90;-0.60;101020.00;;;;4914075;28;120941;-65
2022/02/24 01:37:13;;;;;;;3.10;1.77;;;-0.30;99.90;-0.60;101011.00;;;;4916097;28;92909;-65
2022/02/24 01:39:38;;;;;;;1.60;1.50;;;-0.30;99.90;-0.60;101014.00;;;;4925295;28;106375;-66
2022/02/24 01:42:04;;;;;;;1.60;1.50;;;-0.30;99.90;-0.60;101004.00;;;;4933151;28;121674;-65
2022/02/24 01:44:45;;;;;;;3.03;1.80;;;-0.30;99.90;-0.70;100998.00;;;;4934186;28;94273;-65
2022/02/24 01:47:11;;;;;;;1.30;1.20;;;0.30;99.90;-0.70;101013.00;;;;4934754;28;101983;-65
2022/02/24 01:49:38;;;;;;;6.33;2.23;;;-0.30;99.90;-0.70;100996.00;;;;4933861;28;92996;-65
2022/02/24 01:52:07;;;;;;;2.27;1.83;;;-0.30;99.90;-0.60;101006.00;;;;4933803;28;110794;-64
2022/02/24 01:54:34;;;;;;;2.93;1.33;;;-0.30;99.90;-0.60;100986.00;;;;4934235;28;94051;-66
2022/02/24 01:57:01;;;;;;;3.00;1.73;;;-0.30;99.90;-0.50;100987.00;;;;4915637;28;92423;-65
2022/02/24 01:59:27;;;;;;;2.40;1.27;;;-0.20;99.90;-0.40;100976.00;;;;4928551;28;92870;-65
2022/02/24 02:01:53;;;;;;;1.33;1.23;;;-0.20;99.90;-0.30;100977.00;;;;4913286;28;123401;-64
2022/02/24 02:04:19;;;;;;;2.10;1.47;;;-0.10;99.90;-0.30;100975.00;;;;4911989;28;114115;-66
2022/02/24 02:06:45;;;;;;;3.67;2.07;;;0.00;99.90;-0.30;100968.00;;;;4911818;28;110336;-65
2022/02/24 02:09:11;;;;;;;5.50;2.53;;;0.00;99.90;-0.30;100975.00;;;;4913371;28;109662;-65
2022/02/24 02:11:37;;;;;;;1.60;1.37;;;0.00;99.90;-0.20;100967.00;;;;4911375;28;110115;-65
2022/02/24 02:14:03;;;;;;;4.90;1.87;;;0.10;99.90;-0.20;100975.00;;;;4914107;28;93207;-66
2022/02/24 02:16:29;;;;;;;4.87;2.03;;;0.10;99.90;-0.20;100964.00;;;;4911744;28;110632;-65
2022/02/24 02:18:54;;;;;;;2.20;1.23;;;0.10;99.90;-0.20;100959.00;;;;4914424;28;98548;-64
2022/02/24 02:21:20;;;;;;;1.23;1.13;;;0.20;99.90;-0.20;100969.00;;;;4913074;28;121010;-67
2022/02/24 02:23:46;;;;;;;4.17;1.43;;;0.00;99.90;-0.20;100962.00;;;;4922920;28;92505;-65
2022/02/24 02:26:12;;;;;;;13.53;2.17;;;0.20;99.90;-0.10;100960.00;;;;4933803;28;92923;-65
2022/02/24 02:28:38;;;;;;;0.93;0.93;;;0.20;99.90;-0.10;100968.00;;;;4932543;28;93923;-65
2022/02/24 02:31:04;;;;;;;2.53;2.33;;;0.20;99.90;0.00;100963.00;;;;4932087;28;122821;-66
2022/02/24 02:33:29;;;;;;;9.30;1.60;;;0.20;99.90;0.00;100972.00;;;;4933069;28;93716;-65
2022/02/24 02:35:55;;;;;;;3.27;1.63;;;0.30;99.90;0.00;100964.00;;;;4932044;28;92924;-65
2022/02/24 02:38:21;;;;;;;3.13;1.77;;;0.30;99.90;0.10;100961.00;;;;4932524;28;109142;-64
2022/02/24 02:40:46;;;;;;;1.17;1.07;;;0.30;99.90;0.10;100949.00;;;;4929782;28;121930;-64
2022/02/24 02:43:12;;;;;;;2.57;1.33;;;0.40;99.90;0.10;100958.00;;;;4932277;28;122534;-64
2022/02/24 02:45:39;;;;;;;1.93;1.53;;;0.50;99.90;0.10;100949.00;;;;4934205;28;91894;-66
2022/02/24 02:48:06;;;;;;;2.00;1.70;;;0.40;99.90;0.20;100947.00;;;;4931495;28;92810;-65
2022/02/24 02:50:33;;;;;;;2.23;1.43;;;0.50;99.90;0.20;100945.00;;;;4933128;28;94317;-66
2022/02/24 02:53:03;;;;;;;2.33;1.33;;;0.40;99.90;0.20;100938.00;;;;4914785;28;106727;-66
2022/02/24 02:55:29;;;;;;;7.10;2.33;;;0.40;99.90;0.20;100927.00;;;;4914411;28;93119;-65
2022/02/24 02:57:55;;;;;;;1.53;1.43;;;1.10;99.90;0.20;100925.00;;;;4914014;28;93404;-64
2022/02/24 03:00:21;;;;;;;2.77;1.23;;;0.50;99.90;0.20;100941.00;;;;4912370;28;123618;-65
2022/02/24 03:02:46;;;;;;;2.97;1.60;;;0.60;99.90;0.20;100919.00;;;;4914876;28;104710;-64
2022/02/24 03:05:12;;;;;;;4.43;1.77;;;0.50;99.90;0.20;100911.00;;;;4913011;28;110812;-64
2022/02/24 03:07:38;;;;;;;5.57;1.50;;;0.50;99.90;0.20;100917.00;;;;4914587;28;92957;-65
2022/02/24 03:10:06;;;;;;;3.00;2.20;;;0.50;99.90;0.20;100918.00;;;;4913291;28;122232;-65
2022/02/24 03:12:35;;;;;;;2.97;1.57;;;0.60;99.90;0.20;100901.00;;;;4912813;28;112622;-66
2022/02/24 03:15:08;;;;;;;1.57;1.37;;;0.50;99.90;0.10;100898.00;;;;4914204;28;93358;-65
2022/02/24 03:17:37;;;;;;;2.10;1.73;;;0.50;99.90;0.10;100881.00;;;;4911817;28;93892;-65
2022/02/24 03:20:04;;;;;;;3.60;2.10;;;0.50;99.90;0.10;100887.00;;;;4924826;28;99330;-64
2022/02/24 03:22:29;;;;;;;2.60;2.00;;;0.50;99.90;0.00;100888.00;;;;4932192;28;110601;-64
2022/02/24 03:24:55;;;;;;;4.73;1.97;;;0.40;99.90;0.00;100879.00;;;;4932381;28;112646;-64
2022/02/24 03:27:21;;;;;;;1.83;1.67;;;0.80;99.90;-0.10;100874.00;;;;4918574;28;109161;-64
2022/02/24 03:29:46;;;;;;;3.77;2.20;;;0.20;99.90;-0.10;100879.00;;;;4912269;28;118455;-64
2022/02/24 03:32:12;;;;;;;5.03;1.70;;;0.30;99.90;-0.10;100870.00;;;;4911991;28;122062;-64
2022/02/24 03:34:40;;;;;;;3.97;2.07;;;0.20;99.90;-0.20;100872.00;;;;4910899;28;108462;-64
2022/02/24 03:37:06;;;;;;;3.00;1.17;;;0.10;99.90;-0.30;100868.00;;;;4913891;28;92927;-64
2022/02/24 03:39:32;;;;;;;3.07;2.00;;;0.10;99.90;-0.30;100866.00;;;;4910840;28;105719;-66
2022/02/24 03:41:58;;;;;;;2.73;1.97;;;0.20;99.90;-0.30;100857.00;;;;4911623;28;94131;-65
2022/02/24 03:44:24;;;;;;;2.40;1.57;;;0.00;99.90;-0.30;100839.00;;;;4912375;28;110695;-64
2022/02/24 03:46:50;;;;;;;2.13;1.67;;;0.00;99.90;-0.40;100851.00;;;;4914512;28;92839;-64
2022/02/24 03:49:16;;;;;;;2.60;1.83;;;0.00;99.90;-0.40;100851.00;;;;4931208;28;93798;-64
2022/02/24 03:51:41;;;;;;;3.97;1.97;;;-0.10;99.90;-0.50;100865.00;;;;4932526;28;93310;-64
2022/02/24 03:54:07;;;;;;;2.43;1.67;;;-0.20;99.90;-0.50;100855.00;;;;4933022;28;92983;-64
2022/02/24 03:56:33;;;;;;;1.77;1.63;;;-0.10;99.90;-0.60;100846.00;;;;4932625;28;92975;-65
2022/02/24 03:58:59;;;;;;;9.40;2.13;;;-0.30;99.90;-0.70;100848.00;;;;4931942;28;92032;-64
2022/02/24 04:01:25;;;;;;;3.40;1.53;;;-0.40;99.90;-0.70;100848.00;;;;4932169;28;93075;-64
2022/02/24 04:03:50;;;;;;;2.07;1.23;;;-0.30;99.90;-0.70;100851.00;;;;4933470;28;92930;-63
2022/02/24 04:06:16;;;;;;;7.57;2.77;;;-0.30;99.90;-0.70;100837.00;;;;4931299;28;98690;-64
2022/02/24 04:08:42;;;;;;;2.90;1.67;;;-0.30;99.90;-0.70;100844.00;;;;4932907;28;93129;-65
2022/02/24 04:11:07;;;;;;;2.43;1.77;;;-0.40;99.90;-0.60;100829.00;;;;4916205;28;111606;-65
2022/02/24 04:13:33;;;;;;;3.07;1.50;;;-0.30;99.90;-0.60;100844.00;;;;4912894;28;107041;-65
2022/02/24 04:15:59;;;;;;;4.40;2.37;;;-0.20;99.90;-0.60;100836.00;;;;4920941;28;108539;-65
2022/02/24 04:18:24;;;;;;;3.17;1.97;;;-0.30;99.90;-0.50;100831.00;;;;4932653;28;93018;-65
2022/02/24 04:20:50;;;;;;;2.50;1.90;;;-0.30;99.90;-0.50;100831.00;;;;4931591;28;123002;-66
2022/02/24 04:23:16;;;;;;;4.70;2.33;;;-0.20;99.90;-0.50;100809.00;;;;4930612;28;109086;-65
2022/02/24 04:25:42;;;;;;;2.93;1.80;;;-0.10;99.90;-0.40;100812.00;;;;4932531;28;92971;-65
2022/02/24 04:28:08;;;;;;;2.73;1.83;;;-0.20;99.90;-0.40;100811.00;;;;4932445;28;123052;-64
2022/02/24 04:30:33;;;;;;;2.73;1.60;;;0.00;99.90;-0.40;100798.00;;;;4931075;28;122356;-63
2022/02/24 04:32:59;;;;;;;3.70;2.10;;;-0.10;99.90;-0.30;100797.00;;;;4932706;28;92954;-65
2022/02/24 04:35:25;;;;;;;4.70;2.40;;;-0.10;99.90;-0.30;100796.00;;;;4931834;28;108741;-63
2022/02/24 04:37:51;;;;;;;1.43;1.20;;;0.00;99.90;-0.30;100796.00;;;;4932211;28;94525;-64
2022/02/24 04:40:16;;;;;;;5.73;2.03;;;0.00;99.90;-0.30;100797.00;;;;4932450;28;95482;-64
2022/02/24 04:42:43;;;;;;;2.50;2.07;;;0.10;99.90;-0.20;100786.00;;;;4932938;28;110257;-65
2022/02/24 04:45:09;;;;;;;7.93;5.37;;;0.00;99.90;-0.30;100789.00;;;;4917709;28;92889;-64
2022/02/24 04:47:35;;;;;;;7.13;6.17;;;0.10;99.90;-0.30;100777.00;;;;4915165;28;122196;-63
2022/02/24 04:50:03;;;;;;;10.00;2.83;;;0.00;99.90;-0.20;100788.00;;;;4915555;28;95996;-64
2022/02/24 04:52:29;;;;;;;7.50;2.23;;;0.10;99.90;-0.30;100774.00;;;;4916148;28;92710;-64
2022/02/24 04:54:54;;;;;;;3.70;2.60;;;0.10;99.90;-0.20;100770.00;;;;4929439;28;110484;-63
2022/02/24 04:57:20;;;;;;;3.97;1.83;;;0.10;99.90;-0.20;100780.00;;;;4921680;28;113471;-64
2022/02/24 04:59:46;;;;;;;2.80;2.30;;;0.10;99.90;-0.20;100764.00;;;;4934755;28;122568;-66
2022/02/24 05:02:11;;;;;;;3.50;2.00;;;0.00;99.90;-0.20;100763.00;;;;4934741;28;109519;-65
2022/02/24 05:04:37;;;;;;;6.73;3.20;;;0.10;99.90;-0.30;100758.00;;;;4934259;28;109490;-65
2022/02/24 05:07:03;;;;;;;6.00;2.83;;;0.10;99.90;-0.30;100762.00;;;;4934536;28;122368;-65
2022/02/24 05:09:29;;;;;;;8.77;4.67;;;0.10;99.90;-0.30;100755.00;;;;4954785;28;122919;-65
2022/02/24 05:11:55;;;;;;;5.63;3.77;;;0.10;99.90;-0.30;100753.00;;;;4930153;28;110117;-63
2022/02/24 05:14:20;;;;;;;11.33;4.87;;;0.10;99.90;-0.20;100752.00;;;;4915529;28;92732;-65
2022/02/24 05:16:46;;;;;;;6.73;3.43;;;0.10;99.90;-0.20;100762.00;;;;4915432;28;121814;-64
2022/02/24 05:19:12;;;;;;;4.80;3.00;;;0.10;99.90;-0.20;100753.00;;;;4915293;28;94316;-64
2022/02/24 05:21:37;;;;;;;7.80;4.70;;;0.10;99.90;-0.10;100749.00;;;;4914541;28;109456;-65
2022/02/24 05:24:04;;;;;;;7.90;4.47;;;0.10;99.90;-0.10;100731.00;;;;4915367;28;108854;-62
2022/02/24 05:26:30;;;;;;;3.27;2.97;;;0.20;99.90;0.00;100730.00;;;;4914693;28;111302;-63
2022/02/24 05:28:56;;;;;;;4.87;2.53;;;0.30;99.90;0.00;100728.00;;;;4915762;28;92894;-64
2022/02/24 05:31:21;;;;;;;3.43;2.63;;;0.30;99.90;0.00;100717.00;;;;4912481;28;110465;-65
2022/02/24 05:33:47;;;;;;;4.93;2.57;;;0.30;99.90;0.10;100723.00;;;;4912517;28;109057;-64
2022/02/24 05:36:13;;;;;;;3.03;2.60;;;0.30;99.90;0.10;100722.00;;;;4920137;28;123076;-65
2022/02/24 05:38:38;;;;;;;4.40;2.10;;;0.50;99.90;0.20;100722.00;;;;4930379;28;121499;-63
2022/02/24 05:41:04;;;;;;;5.23;2.23;;;0.40;99.90;0.20;100717.00;;;;4931546;28;92935;-64
2022/02/24 05:43:30;;;;;;;7.93;2.37;;;0.40;99.90;0.20;100705.00;;;;4930269;28;94038;-65
2022/02/24 05:45:57;;;;;;;5.10;1.97;;;0.50;99.90;0.30;100709.00;;;;4931056;28;93142;-63
2022/02/24 05:48:24;;;;;;;4.97;2.50;;;0.50;99.90;0.30;100707.00;;;;4931299;28;93156;-63
2022/02/24 05:50:50;;;;;;;4.37;2.27;;;0.60;99.90;0.40;100706.00;;;;4931068;28;93077;-64
2022/02/24 05:53:16;;;;;;;2.90;2.20;;;1.20;99.90;0.40;100716.00;;;;4930738;28;101539;-63
2022/02/24 05:55:42;;;;;;;2.67;2.10;;;0.60;99.90;0.50;100700.00;;;;4930189;28;123087;-63
2022/02/24 05:58:07;;;;;;;3.60;2.43;;;0.70;99.90;0.60;100701.00;;;;4930697;28;113758;-64
2022/02/24 06:00:33;;;;;;;3.20;1.97;;;0.80;99.90;0.60;100704.00;;;;4931118;28;110037;-63
2022/02/24 06:02:59;;;;;;;3.67;2.30;;;0.80;99.90;0.70;100695.00;;;;4930013;28;104982;-64
2022/02/24 06:05:24;;;;;;;3.27;2.37;;;1.00;99.90;0.80;100694.00;;;;4930575;28;93709;-64
2022/02/24 06:07:50;;;;;;;2.27;1.77;;;1.00;99.90;0.90;100685.00;;;;4930950;28;123105;-64
2022/02/24 06:10:16;;;;;;;3.67;2.10;;;1.10;99.90;1.00;100690.00;;;;4931488;28;109859;-64
2022/02/24 06:12:42;;;;;;;2.13;2.00;;;1.20;99.90;1.00;100676.00;;;;4930933;28;94170;-63
2022/02/24 06:15:10;;;;;;;3.87;2.67;;;1.20;99.90;1.10;100671.00;;;;4933434;28;94004;-64
2022/02/24 06:17:36;;;;;;;2.33;2.00;;;2.00;99.90;1.30;100657.00;;;;4934668;28;92806;-63
2022/02/24 06:20:03;;;;;;;2.30;1.87;;;1.50;99.90;1.40;100667.00;;;;4933903;28;93050;-64
2022/02/24 06:22:29;;;;;;;3.30;2.40;;;1.60;99.90;1.50;100662.00;;;;4933351;28;101893;-63
2022/02/24 06:24:55;;;;;;;3.60;2.20;;;1.70;99.90;1.60;100657.00;;;;4933625;28;113977;-63
2022/02/24 06:27:20;;;;;;;2.23;1.90;;;1.90;99.90;1.80;100658.00;;;;4932687;28;120943;-64
2022/02/24 06:29:47;;;;;;;1.83;1.60;;;2.00;99.90;1.90;100666.00;;;;4933403;28;109140;-66
2022/02/24 06:32:13;;;;;;;3.93;2.07;;;2.10;99.90;2.00;100673.00;;;;4933679;28;93648;-64
2022/02/24 06:34:42;;;;;;;3.37;1.80;;;2.20;99.90;2.20;100656.00;;;;4930554;28;92717;-64
2022/02/24 06:37:09;;;;;;;7.50;2.47;;;2.40;99.90;2.30;100651.00;;;;4932473;28;92833;-64
2022/02/24 06:39:35;;;;;;;6.27;1.80;;;2.50;99.90;2.40;100647.00;;;;4934266;28;92945;-64
2022/02/24 06:42:01;;;;;;;2.37;2.10;;;2.60;99.90;2.50;100642.00;;;;4936186;28;96555;-65
2022/02/24 06:44:27;;;;;;;5.53;2.27;;;2.20;99.90;2.60;100644.00;;;;4913872;28;93916;-65
2022/02/24 06:46:53;;;;;;;3.57;1.77;;;2.70;99.90;2.60;100642.00;;;;4914204;28;93676;-64
2022/02/24 06:49:19;;;;;;;2.67;1.67;;;2.80;99.90;2.60;100643.00;;;;4913825;28;110457;-64
2022/02/24 06:51:45;;;;;;;4.67;1.47;;;2.90;99.90;2.70;100628.00;;;;4913800;28;109782;-65
2022/02/24 06:54:11;;;;;;;2.80;1.73;;;2.90;99.90;2.70;100634.00;;;;4913678;28;93061;-64
2022/02/24 06:56:37;;;;;;;2.50;1.33;;;3.00;99.90;2.80;100632.00;;;;4926887;28;122176;-64
2022/02/24 06:59:03;;;;;;;2.27;2.07;;;3.10;99.90;2.80;100627.00;;;;4933361;28;110540;-65
2022/02/24 07:01:30;;;;;;;3.07;2.30;;;3.10;99.90;3.00;100623.00;;;;4934264;28;93046;-63
2022/02/24 07:03:56;;;;;;;2.13;1.77;;;3.10;99.90;3.00;100619.00;;;;4933773;28;92971;-63
2022/02/24 07:06:22;;;;;;;3.63;1.67;;;3.20;99.90;3.20;100615.00;;;;4931211;28;114043;-65
2022/02/24 07:08:48;;;;;;;3.43;1.77;;;3.30;99.90;3.30;100619.00;;;;4932815;28;92991;-65
2022/02/24 07:11:14;;;;;;;3.03;1.70;;;3.50;99.90;3.40;100622.00;;;;4913719;28;100651;-64
2022/02/24 07:13:39;;;;;;;2.60;2.20;;;3.60;99.90;3.50;100613.00;;;;4914034;28;93327;-63
2022/02/24 07:16:06;;;;;;;3.10;1.30;;;3.70;99.90;3.70;100609.00;;;;4912855;28;121083;-64
2022/02/24 07:18:32;;;;;;;3.43;1.33;;;4.00;99.90;3.90;100613.00;;;;4927633;28;93406;-65
2022/02/24 07:20:57;;;;;;;6.53;1.47;;;4.30;99.90;4.10;100620.00;;;;4912472;28;107829;-65
2022/02/24 07:23:26;;;;;;;2.27;1.57;;;4.20;99.90;4.30;100602.00;;;;4914074;28;106722;-64
2022/02/24 07:25:53;;;;;;;2.30;1.63;;;4.90;99.90;4.60;100615.00;;;;4912882;28;93358;-65
2022/02/24 07:28:20;;;;;;;4.87;1.57;;;4.90;99.90;4.80;100611.00;;;;4913657;28;92833;-64
2022/02/24 07:30:46;;;;;;;8.00;2.27;;;4.90;99.90;5.10;100611.00;;;;4913839;28;92775;-66
2022/02/24 07:33:12;;;;;;;5.17;1.63;;;5.80;99.90;5.30;100598.00;;;;4928138;28;93979;-65
2022/02/24 07:35:38;;;;;;;1.67;1.57;;;5.30;99.90;5.50;100599.00;;;;4931869;28;122210;-66
2022/02/24 07:38:03;;;;;;;2.57;1.57;;;5.60;99.40;5.70;100602.00;;;;4933986;28;92150;-66
2022/02/24 07:40:29;;;;;;;1.87;1.40;;;6.00;98.60;5.80;100607.00;;;;4932629;28;109012;-66
2022/02/24 07:42:55;;;;;;;4.43;1.70;;;5.90;96.90;6.00;100608.00;;;;4932045;28;120829;-65
2022/02/24 07:45:21;;;;;;;3.23;1.87;;;6.50;96.70;6.10;100594.00;;;;4915817;28;124405;-66
2022/02/24 07:47:46;;;;;;;5.30;1.90;;;6.20;95.40;6.20;100593.00;;;;4914662;28;92809;-67
2022/02/24 07:50:15;;;;;;;5.87;2.20;;;6.30;94.30;6.30;100586.00;;;;4914036;28;92927;-66
2022/02/24 07:52:45;;;;;;;2.50;1.27;;;6.70;93.10;6.40;100590.00;;;;4911024;28;95226;-65
2022/02/24 07:55:13;;;;;;;1.57;1.23;;;6.50;92.80;6.40;100582.00;;;;4913442;28;93040;-65
2022/02/24 07:57:42;;;;;;;3.40;1.93;;;6.50;92.00;6.30;100581.00;;;;4913780;28;92969;-67
2022/02/24 08:00:15;;;;;;;2.17;1.63;;;6.40;91.90;6.40;100572.00;;;;4918053;28;92972;-65
2022/02/24 08:02:42;;;;;;;1.43;1.17;;;6.50;92.30;6.60;100565.00;;;;4933828;28;93611;-65
2022/02/24 08:05:10;;;;;;;6.97;1.90;;;6.70;91.60;6.80;100579.00;;;;4930106;28;93440;-65
2022/02/24 08:07:35;;;;;;;4.53;1.53;;;6.80;91.40;7.10;100564.00;;;;4932990;28;94171;-65
2022/02/24 08:10:02;;;;;;;2.20;1.60;;;7.10;91.90;7.30;100565.00;;;;4932562;28;93685;-67
2022/02/24 08:12:39;;;;;;;4.07;1.67;;;7.30;91.00;7.60;100554.00;;;;4930109;28;108977;-67
2022/02/24 08:15:07;;;;;;;1.40;1.20;;;7.50;90.80;7.70;100557.00;;;;4932441;28;92758;-67
2022/02/24 08:17:33;;;;;;;3.00;1.60;;;7.70;85.10;7.80;100553.00;;;;4933551;28;92878;-67
2022/02/24 08:19:59;;;;;;;5.13;1.83;;;7.80;85.60;8.00;100549.00;;;;4934077;28;102176;-67
2022/02/24 08:22:25;;;;;;;2.00;1.17;;;8.00;86.20;8.20;100531.00;;;;4935686;28;93552;-66
2022/02/24 08:24:51;;;;;;;2.43;1.17;;;8.10;83.30;8.30;100549.00;;;;4921477;28;93766;-67
2022/02/24 08:27:16;;;;;;;3.83;1.67;;;8.30;82.90;8.50;100550.00;;;;4917219;28;92506;-66
2022/02/24 08:29:42;;;;;;;3.93;1.93;;;8.50;81.80;8.60;100539.00;;;;4932179;28;107744;-67
2022/02/24 08:32:11;;;;;;;3.50;2.10;;;8.60;80.80;8.80;100536.00;;;;4934760;28;122164;-66
2022/02/24 08:34:36;;;;;;;3.13;1.70;;;8.80;79.20;8.90;100539.00;;;;4933948;28;123018;-66
2022/02/24 08:37:04;;;;;;;2.30;1.63;;;8.90;79.60;9.00;100530.00;;;;4934278;28;92740;-65
2022/02/24 08:39:30;;;;;;;1.67;1.27;;;9.00;77.90;9.10;100526.00;;;;4936023;28;92939;-65
2022/02/24 08:41:56;;;;;;;2.87;2.00;;;9.10;77.30;9.30;100518.00;;;;4935618;28;93914;-64
2022/02/24 08:44:21;;;;;;;2.37;1.50;;;9.30;77.60;9.50;100533.00;;;;4934214;28;122033;-66
2022/02/24 08:46:47;;;;;;;5.20;2.10;;;9.40;77.50;9.80;100520.00;;;;4935287;28;96576;-67
2022/02/24 08:49:13;;;;;;;2.10;1.77;;;9.70;77.00;10.00;100502.00;;;;4936458;28;92838;-64
2022/02/24 08:51:40;;;;;;;3.73;1.70;;;9.90;74.40;10.20;100518.00;;;;4934176;28;92983;-65
2022/02/24 08:54:06;;;;;;;2.17;1.27;;;10.10;74.90;10.40;100505.00;;;;4935226;28;93039;-66
2022/02/24 08:56:32;;;;;;;2.43;1.57;;;10.30;73.20;10.60;100517.00;;;;4932721;28;110670;-65
2022/02/24 08:58:57;;;;;;;3.47;1.50;;;10.50;72.40;10.70;100512.00;;;;4934170;28;109113;-65
2022/02/24 09:01:23;;;;;;;1.77;1.20;;;10.70;73.10;10.80;100507.00;;;;4935304;28;93851;-64
2022/02/24 09:03:49;;;;;;;3.07;1.17;;;10.70;73.10;10.80;100502.00;;;;4935453;28;93521;-65
2022/02/24 09:06:16;;;;;;;2.20;1.23;;;10.80;72.50;10.80;100489.00;;;;4916898;28;111563;-64
2022/02/24 09:08:45;;;;;;;3.27;1.07;;;10.80;71.60;10.70;100496.00;;;;4931479;28;92731;-64
2022/02/24 09:11:11;;;;;;;1.47;1.13;;;10.70;70.90;10.60;100486.00;;;;4934203;28;93463;-65
2022/02/24 09:13:41;;;;;;;1.33;1.20;;;10.60;69.80;10.40;100476.00;;;;4934512;28;109060;-64
2022/02/24 09:16:08;;;;;;;1.13;1.10;;;10.60;69.20;10.20;100478.00;;;;4919392;28;92102;-65
2022/02/24 09:18:35;;;;;;;1.30;1.07;;;10.30;67.80;10.00;100465.00;;;;4915812;28;92674;-65
2022/02/24 09:21:00;;;;;;;1.70;0.83;;;10.20;67.60;9.90;100462.00;;;;4915050;28;100912;-65
2022/02/24 09:23:26;;;;;;;2.43;0.93;;;10.00;67.80;9.80;100469.00;;;;4913828;28;119209;-65
2022/02/24 09:25:52;;;;;;;1.43;0.80;;;9.90;68.70;9.80;100455.00;;;;4916128;28;92878;-65
2022/02/24 09:28:18;;;;;;;0.77;0.67;;;9.80;69.60;9.80;100464.00;;;;4918295;28;99688;-66
2022/02/24 09:30:44;;;;;;;1.53;0.77;;;9.80;69.70;9.70;100463.00;;;;4922589;28;122285;-65
2022/02/24 09:33:10;;;;;;;1.40;1.00;;;9.70;69.70;9.70;100453.00;;;;4931379;28;106774;-65
2022/02/24 09:35:36;;;;;;;2.03;0.87;;;9.70;69.70;9.60;100454.00;;;;4948270;28;93033;-66
2022/02/24 09:38:02;;;;;;;1.50;1.00;;;9.70;70.00;9.60;100460.00;;;;4934420;28;92892;-66
2022/02/24 09:40:33;;;;;;;4.03;0.97;;;9.60;70.40;9.50;100450.00;;;;4933664;28;115220;-65
2022/02/24 09:42:58;;;;;;;3.17;1.23;;;9.50;70.30;9.60;100447.00;;;;4925280;28;92774;-66
2022/02/24 09:45:25;;;;;;;1.10;0.77;;;9.60;71.40;9.60;100457.00;;;;4929527;28;109885;-65
2022/02/24 09:47:55;;;;;;;2.13;1.23;;;9.60;70.80;9.70;100456.00;;;;4933116;28;93706;-65
2022/02/24 09:50:26;;;;;;;0.93;0.80;;;9.60;71.80;9.80;100446.00;;;;4946692;28;94278;-65
2022/02/24 09:52:52;;;;;;;5.93;1.00;;;9.70;71.00;9.90;100443.00;;;;4932797;28;93965;-65
2022/02/24 09:55:18;;;;;;;2.63;1.20;;;9.90;71.10;10.00;100439.00;;;;4920642;28;110995;-66
2022/02/24 09:57:43;;;;;;;1.60;1.23;;;9.90;71.00;10.10;100437.00;;;;4914097;28;109092;-66
2022/02/24 10:00:10;;;;;;;1.97;0.90;;;10.00;71.10;10.10;100435.00;;;;4914876;28;118089;-66
2022/02/24 10:02:36;;;;;;;5.07;1.00;;;10.10;70.90;10.20;100439.00;;;;4912231;28;93089;-67
2022/02/24 10:05:08;;;;;;;3.53;1.27;;;10.10;71.50;10.20;100425.00;;;;4912005;28;111323;-67
2022/02/24 10:07:38;;;;;;;1.63;1.20;;;10.20;72.10;10.20;100414.00;;;;4914452;28;92764;-66
2022/02/24 10:10:31;;;;;;;1.53;0.93;;;10.20;72.70;10.20;100435.00;;;;4914461;28;92995;-65
2022/02/24 10:13:15;;;;;;;4.40;0.93;;;10.30;71.70;10.20;100415.00;;;;4924826;28;94759;-65
2022/02/24 10:15:44;;;;;;;1.93;0.90;;;10.20;71.50;10.30;100418.00;;;;4917318;28;92868;-65
2022/02/24 10:18:15;;;;;;;4.67;1.50;;;10.30;71.10;10.40;100425.00;;;;4921710;28;92832;-66
2022/02/24 10:20:55;;;;;;;4.80;1.13;;;10.40;71.40;10.50;100417.00;;;;4915264;28;92844;-65
2022/02/24 10:23:33;;;;;;;0.93;0.93;;;10.50;72.10;10.60;100404.00;;;;4914638;28;93040;-65
2022/02/24 10:26:12;;;;;;;2.00;1.10;;;10.60;70.70;10.60;100406.00;;;;4931329;28;93054;-65
2022/02/24 10:28:48;;;;;;;2.30;0.90;;;10.60;70.70;10.60;100415.00;;;;4933249;28;92793;-66
2022/02/24 10:31:20;;;;;;;2.17;1.07;;;10.60;71.10;10.60;100401.00;;;;4933789;28;92275;-65
2022/02/24 10:33:50;;;;;;;1.10;0.47;;;10.60;70.70;10.60;100406.00;;;;4934542;28;93042;-64
2022/02/24 10:36:25;;;;;;;3.07;1.20;;;10.60;71.10;10.50;100391.00;;;;4933090;28;93949;-66
2022/02/24 10:39:17;;;;;;;1.43;0.77;;;10.50;71.00;10.50;100377.00;;;;4934475;28;93681;-65
2022/02/24 10:41:49;;;;;;;4.10;1.20;;;11.00;71.40;10.40;100373.00;;;;4933165;28;92859;-64
2022/02/24 10:44:24;;;;;;;2.33;1.27;;;10.50;71.80;10.40;100385.00;;;;4929517;28;93838;-65
2022/02/24 10:47:07;;;;;;;2.43;0.97;;;10.50;72.50;10.40;100373.00;;;;4913778;28;92921;-66
2022/02/24 10:49:39;;;;;;;1.10;0.70;;;10.40;72.50;10.40;100364.00;;;;4933232;28;93699;-65
2022/02/24 10:52:16;;;;;;;3.90;0.83;;;10.40;72.90;10.30;100368.00;;;;4939658;28;114658;-67